sensor_id;sensor_type;location;lat;lon;timestamp;temperature;humidity
16736;DHT22;17990;49.548;9.730;2023-05-19T00:02:09;7.60;99.90
16736;DHT22;17990;49.548;9.730;2023-05-19T00:04:37;7.60;99.90
16736;DHT22;17990;49.548;9.730;2023-05-19T00:07:05;7.50;99.90
16736;DHT22;17990;49.548;9.730;2023-05-19T00:09:34;7.50;99.90
16736;DHT22;17990;49.548;9.730;2023-05-19T00:12:02;7.50;99.90
16736;DHT22;17990;49.548;9.730;2023-05-19T00:14:29;7.40;99.90
16736;DHT22;17990;49.548;9.730;2023-05-19T00:16:59;7.40;99.90
16736;DHT22;17990;49.548;9.730;2023-05-19T00:19:26;7.40;99.90
16736;DHT22;17990;49.548;9.730;2023-05-19T00:21:56;7.40;99.90
16736;DHT22;17990;49.548;9.730;2023-05-19T00:24:23;7.30;99.90
16736;DHT22;17990;49.548;9.730;2023-05-19T00:26:50;7.20;99.90
16736;DHT22;17990;49.548;9.730;2023-05-19T00:29:17;7.20;99.90
16736;DHT22;17990;49.548;9.730;2023-05-19T00:31:44;7.20;99.90
16736;DHT22;17990;49.548;9.730;2023-05-19T00:34:12;7.10;99.90
16736;DHT22;17990;49.548;9.730;2023-05-19T00:36:39;7.10;99.90
16736;DHT22;17990;49.548;9.730;2023-05-19T00:39:06;7.00;99.90
16736;DHT22;17990;49.548;9.730;2023-05-19T00:41:33;7.00;99.90
16736;DHT22;17990;49.548;9.730;2023-05-19T00:44:00;7.00;99.90
16736;DHT22;17990;49.548;9.730;2023-05-19T00:46:27;7.00;99.90
16736;DHT22;17990;49.548;9.730;2023-05-19T00:48:54;6.90;99.90
16736;DHT22;17990;49.548;9.730;2023-05-19T00:51:23;7.00;99.90
16736;DHT22;17990;49.548;9.730;2023-05-19T00:53:52;7.00;99.90
16736;DHT22;17990;49.548;9.730;2023-05-19T00:56:19;7.00;99.90
16736;DHT22;17990;49.548;9.730;2023-05-19T00:58:47;6.90;99.90
16736;DHT22;17990;49.548;9.730;2023-05-19T01:01:16;6.80;99.90
16736;DHT22;17990;49.548;9.730;2023-05-19T01:03:47;6.80;99.90
16736;DHT22;17990;49.548;9.730;2023-05-19T01:06:14;6.70;99.90
16736;DHT22;17990;49.548;9.730;2023-05-19T01:08:44;6.70;99.90
16736;DHT22;17990;49.548;9.730;2023-05-19T01:11:11;6.70;99.90
16736;DHT22;17990;49.548;9.730;2023-05-19T01:13:38;6.70;99.90
16736;DHT22;17990;49.548;9.730;2023-05-19T01:16:09;6.70;99.90
16736;DHT22;17990;49.548;9.730;2023-05-19T01:18:54;6.70;99.90
16736;DHT22;17990;49.548;9.730;2023-05-19T01:28:14;6.70;99.90
16736;DHT22;17990;49.548;9.730;2023-05-19T01:30:59;6.70;99.90
16736;DHT22;17990;49.548;9.730;2023-05-19T01:33:29;6.60;99.90
16736;DHT22;17990;49.548;9.730;2023-05-19T01:35:58;6.60;99.90
16736;DHT22;17990;49.548;9.730;2023-05-19T01:38:28;6.60;99.90
16736;DHT22;17990;49.548;9.730;2023-05-19T01:40:56;6.60;99.90
16736;DHT22;17990;49.548;9.730;2023-05-19T01:43:25;6.50;99.90
16736;DHT22;17990;49.548;9.730;2023-05-19T01:45:52;6.50;99.90
16736;DHT22;17990;49.548;9.730;2023-05-19T01:48:22;6.60;99.90
16736;DHT22;17990;49.548;9.730;2023-05-19T01:50:49;6.50;99.90
16736;DHT22;17990;49.548;9.730;2023-05-19T01:53:16;6.60;99.90
16736;DHT22;17990;49.548;9.730;2023-05-19T01:55:45;6.60;99.90
16736;DHT22;17990;49.548;9.730;2023-05-19T01:58:18;6.50;99.90
16736;DHT22;17990;49.548;9.730;2023-05-19T02:00:51;6.50;99.90
16736;DHT22;17990;49.548;9.730;2023-05-19T02:03:33;6.40;99.90
16736;DHT22;17990;49.548;9.730;2023-05-19T02:06:13;6.40;99.90
16736;DHT22;17990;49.548;9.730;2023-05-19T02:08:56;6.30;99.90
16736;DHT22;17990;49.548;9.730;2023-05-19T02:11:28;6.30;99.90
16736;DHT22;17990;49.548;9.730;2023-05-19T02:14:02;6.30;99.90
16736;DHT22;17990;49.548;9.730;2023-05-19T02:16:35;6.40;99.90
16736;DHT22;17990;49.548;9.730;2023-05-19T02:19:04;6.50;99.90
16736;DHT22;17990;49.548;9.730;2023-05-19T02:21:31;6.40;99.90
16736;DHT22;17990;49.548;9.730;2023-05-19T02:23:58;6.50;99.90
16736;DHT22;17990;49.548;9.730;2023-05-19T02:26:25;6.50;99.90
16736;DHT22;17990;49.548;9.730;2023-05-19T02:28:52;6.50;99.90
16736;DHT22;17990;49.548;9.730;2023-05-19T02:31:19;6.50;99.90
16736;DHT22;17990;49.548;9.730;2023-05-19T02:33:46;6.50;99.90
16736;DHT22;17990;49.548;9.730;2023-05-19T02:36:14;6.40;99.90
16736;DHT22;17990;49.548;9.730;2023-05-19T02:38:41;6.40;99.90
16736;DHT22;17990;49.548;9.730;2023-05-19T02:41:08;6.40;99.90
16736;DHT22;17990;49.548;9.730;2023-05-19T02:43:35;6.40;99.90
16736;DHT22;17990;49.548;9.730;2023-05-19T02:46:02;6.40;99.90
16736;DHT22;17990;49.548;9.730;2023-05-19T02:48:28;6.50;99.90
16736;DHT22;17990;49.548;9.730;2023-05-19T02:50:55;6.50;99.90
16736;DHT22;17990;49.548;9.730;2023-05-19T02:53:23;6.50;99.90
16736;DHT22;17990;49.548;9.730;2023-05-19T02:55:50;6.50;99.90
16736;DHT22;17990;49.548;9.730;2023-05-19T02:58:18;6.50;99.90
16736;DHT22;17990;49.548;9.730;2023-05-19T03:00:45;6.50;99.90
16736;DHT22;17990;49.548;9.730;2023-05-19T03:03:12;6.50;99.90
16736;DHT22;17990;49.548;9.730;2023-05-19T03:05:39;6.50;99.90
16736;DHT22;17990;49.548;9.730;2023-05-19T03:08:06;6.60;99.90
16736;DHT22;17990;49.548;9.730;2023-05-19T03:10:35;6.60;99.90
16736;DHT22;17990;49.548;9.730;2023-05-19T03:13:01;6.60;99.90
16736;DHT22;17990;49.548;9.730;2023-05-19T03:15:28;6.60;99.90
16736;DHT22;17990;49.548;9.730;2023-05-19T03:17:56;6.60;99.90
16736;DHT22;17990;49.548;9.730;2023-05-19T03:20:23;6.60;99.90
16736;DHT22;17990;49.548;9.730;2023-05-19T03:22:50;6.60;99.90
16736;DHT22;17990;49.548;9.730;2023-05-19T03:25:17;6.70;99.90
16736;DHT22;17990;49.548;9.730;2023-05-19T03:27:45;6.70;99.90
16736;DHT22;17990;49.548;9.730;2023-05-19T03:30:13;6.60;99.90
16736;DHT22;17990;49.548;9.730;2023-05-19T03:32:40;6.60;99.90
16736;DHT22;17990;49.548;9.730;2023-05-19T03:35:07;6.70;99.90
16736;DHT22;17990;49.548;9.730;2023-05-19T03:37:34;6.70;99.90
16736;DHT22;17990;49.548;9.730;2023-05-19T03:40:01;6.70;99.90
16736;DHT22;17990;49.548;9.730;2023-05-19T03:42:30;6.70;99.90
16736;DHT22;17990;49.548;9.730;2023-05-19T03:44:58;6.70;99.90
16736;DHT22;17990;49.548;9.730;2023-05-19T03:47:25;6.70;99.90
16736;DHT22;17990;49.548;9.730;2023-05-19T03:49:51;6.80;99.90
16736;DHT22;17990;49.548;9.730;2023-05-19T03:52:18;6.80;99.90
16736;DHT22;17990;49.548;9.730;2023-05-19T03:54:46;6.80;99.90
16736;DHT22;17990;49.548;9.730;2023-05-19T03:57:13;6.80;99.90
16736;DHT22;17990;49.548;9.730;2023-05-19T03:59:40;6.80;99.90
16736;DHT22;17990;49.548;9.730;2023-05-19T04:02:09;6.90;99.90
16736;DHT22;17990;49.548;9.730;2023-05-19T04:04:36;6.90;99.90
16736;DHT22;17990;49.548;9.730;2023-05-19T04:07:03;6.90;99.90
16736;DHT22;17990;49.548;9.730;2023-05-19T04:09:31;6.80;99.90
16736;DHT22;17990;49.548;9.730;2023-05-19T04:11:59;6.80;99.90
16736;DHT22;17990;49.548;9.730;2023-05-19T04:14:27;6.90;99.90
16736;DHT22;17990;49.548;9.730;2023-05-19T04:16:54;7.00;99.90
16736;DHT22;17990;49.548;9.730;2023-05-19T04:19:22;7.10;99.90
16736;DHT22;17990;49.548;9.730;2023-05-19T04:21:49;7.10;99.90
16736;DHT22;17990;49.548;9.730;2023-05-19T04:24:16;7.10;99.90
16736;DHT22;17990;49.548;9.730;2023-05-19T04:26:43;7.20;99.90
16736;DHT22;17990;49.548;9.730;2023-05-19T04:29:11;7.30;99.90
16736;DHT22;17990;49.548;9.730;2023-05-19T04:31:42;7.40;99.90
16736;DHT22;17990;49.548;9.730;2023-05-19T04:34:09;7.50;99.90
16736;DHT22;17990;49.548;9.730;2023-05-19T04:36:38;7.60;99.90
16736;DHT22;17990;49.548;9.730;2023-05-19T04:39:04;7.60;99.90
16736;DHT22;17990;49.548;9.730;2023-05-19T04:41:34;7.70;99.90
16736;DHT22;17990;49.548;9.730;2023-05-19T04:44:04;7.60;99.90
16736;DHT22;17990;49.548;9.730;2023-05-19T04:46:31;7.70;99.90
16736;DHT22;17990;49.548;9.730;2023-05-19T04:48:58;7.80;99.90
16736;DHT22;17990;49.548;9.730;2023-05-19T04:51:26;7.90;99.90
16736;DHT22;17990;49.548;9.730;2023-05-19T04:53:57;8.00;99.90
16736;DHT22;17990;49.548;9.730;2023-05-19T04:56:23;8.00;99.90
16736;DHT22;17990;49.548;9.730;2023-05-19T04:58:51;8.10;99.90
16736;DHT22;17990;49.548;9.730;2023-05-19T05:01:18;8.30;99.90
16736;DHT22;17990;49.548;9.730;2023-05-19T05:03:50;8.50;99.90
16736;DHT22;17990;49.548;9.730;2023-05-19T05:06:19;8.40;99.90
16736;DHT22;17990;49.548;9.730;2023-05-19T05:08:46;8.50;99.90
16736;DHT22;17990;49.548;9.730;2023-05-19T05:11:15;8.60;99.90
16736;DHT22;17990;49.548;9.730;2023-05-19T05:13:43;8.70;99.90
16736;DHT22;17990;49.548;9.730;2023-05-19T05:16:11;8.90;99.90
16736;DHT22;17990;49.548;9.730;2023-05-19T05:18:39;9.00;99.90
16736;DHT22;17990;49.548;9.730;2023-05-19T05:21:08;9.10;99.90
16736;DHT22;17990;49.548;9.730;2023-05-19T05:23:35;9.30;99.90
16736;DHT22;17990;49.548;9.730;2023-05-19T05:26:06;9.60;99.90
16736;DHT22;17990;49.548;9.730;2023-05-19T05:28:36;9.70;99.90
16736;DHT22;17990;49.548;9.730;2023-05-19T05:31:03;9.90;99.90
16736;DHT22;17990;49.548;9.730;2023-05-19T05:33:30;9.90;99.90
16736;DHT22;17990;49.548;9.730;2023-05-19T05:35:57;10.00;99.90
16736;DHT22;17990;49.548;9.730;2023-05-19T05:38:24;10.10;99.90
16736;DHT22;17990;49.548;9.730;2023-05-19T05:40:51;10.30;99.90
16736;DHT22;17990;49.548;9.730;2023-05-19T05:43:18;10.50;99.90
16736;DHT22;17990;49.548;9.730;2023-05-19T05:45:46;10.80;99.90
16736;DHT22;17990;49.548;9.730;2023-05-19T05:48:13;11.00;99.90
16736;DHT22;17990;49.548;9.730;2023-05-19T05:50:42;11.50;99.90
16736;DHT22;17990;49.548;9.730;2023-05-19T05:53:11;12.00;99.90
16736;DHT22;17990;49.548;9.730;2023-05-19T05:55:43;12.60;99.90
16736;DHT22;17990;49.548;9.730;2023-05-19T05:58:11;13.80;99.90
16736;DHT22;17990;49.548;9.730;2023-05-19T06:00:40;14.90;99.90
16736;DHT22;17990;49.548;9.730;2023-05-19T06:03:10;16.10;99.90
16736;DHT22;17990;49.548;9.730;2023-05-19T06:05:37;16.00;99.90
16736;DHT22;17990;49.548;9.730;2023-05-19T06:08:05;16.90;99.90
16736;DHT22;17990;49.548;9.730;2023-05-19T06:10:32;18.70;99.90
16736;DHT22;17990;49.548;9.730;2023-05-19T06:12:59;21.30;99.90
16736;DHT22;17990;49.548;9.730;2023-05-19T06:15:26;20.90;97.90
16736;DHT22;17990;49.548;9.730;2023-05-19T06:17:53;21.30;96.90
16736;DHT22;17990;49.548;9.730;2023-05-19T06:20:22;22.90;94.00
16736;DHT22;17990;49.548;9.730;2023-05-19T06:22:49;24.80;88.80
16736;DHT22;17990;49.548;9.730;2023-05-19T06:25:16;26.10;79.80
16736;DHT22;17990;49.548;9.730;2023-05-19T06:27:44;25.20;79.20
16736;DHT22;17990;49.548;9.730;2023-05-19T06:30:12;25.20;77.60
16736;DHT22;17990;49.548;9.730;2023-05-19T06:32:39;24.60;77.40
16736;DHT22;17990;49.548;9.730;2023-05-19T06:35:06;21.70;84.30
16736;DHT22;17990;49.548;9.730;2023-05-19T06:37:35;20.20;88.90
16736;DHT22;17990;49.548;9.730;2023-05-19T06:40:02;21.50;87.00
16736;DHT22;17990;49.548;9.730;2023-05-19T06:42:30;22.10;84.50
16736;DHT22;17990;49.548;9.730;2023-05-19T06:44:57;21.80;84.80
16736;DHT22;17990;49.548;9.730;2023-05-19T06:47:24;21.40;84.10
16736;DHT22;17990;49.548;9.730;2023-05-19T06:49:50;23.60;79.70
16736;DHT22;17990;49.548;9.730;2023-05-19T06:52:19;25.70;74.50
16736;DHT22;17990;49.548;9.730;2023-05-19T06:54:48;26.70;68.80
16736;DHT22;17990;49.548;9.730;2023-05-19T06:57:15;24.40;72.90
16736;DHT22;17990;49.548;9.730;2023-05-19T06:59:41;22.10;78.80
16736;DHT22;17990;49.548;9.730;2023-05-19T07:02:11;22.10;79.10
16736;DHT22;17990;49.548;9.730;2023-05-19T07:04:38;22.10;78.40
16736;DHT22;17990;49.548;9.730;2023-05-19T07:07:05;23.40;76.30
16736;DHT22;17990;49.548;9.730;2023-05-19T07:09:32;23.30;76.00
16736;DHT22;17990;49.548;9.730;2023-05-19T07:12:00;23.10;75.80
16736;DHT22;17990;49.548;9.730;2023-05-19T07:14:27;23.40;75.50
16736;DHT22;17990;49.548;9.730;2023-05-19T07:16:54;23.50;75.40
16736;DHT22;17990;49.548;9.730;2023-05-19T07:19:21;24.40;74.10
16736;DHT22;17990;49.548;9.730;2023-05-19T07:21:48;25.10;71.30
16736;DHT22;17990;49.548;9.730;2023-05-19T07:24:15;24.40;72.00
16736;DHT22;17990;49.548;9.730;2023-05-19T07:26:42;24.90;70.20
16736;DHT22;17990;49.548;9.730;2023-05-19T07:29:10;24.70;70.50
16736;DHT22;17990;49.548;9.730;2023-05-19T07:31:37;24.50;70.60
16736;DHT22;17990;49.548;9.730;2023-05-19T07:34:04;24.90;69.40
16736;DHT22;17990;49.548;9.730;2023-05-19T07:36:31;25.30;68.40
16736;DHT22;17990;49.548;9.730;2023-05-19T07:38:58;25.00;69.00
16736;DHT22;17990;49.548;9.730;2023-05-19T07:41:25;24.50;69.30
16736;DHT22;17990;49.548;9.730;2023-05-19T07:43:52;24.50;69.60
16736;DHT22;17990;49.548;9.730;2023-05-19T07:46:20;26.20;66.50
16736;DHT22;17990;49.548;9.730;2023-05-19T07:48:47;25.80;66.40
16736;DHT22;17990;49.548;9.730;2023-05-19T07:51:14;25.00;68.10
16736;DHT22;17990;49.548;9.730;2023-05-19T07:53:41;25.00;68.50
16736;DHT22;17990;49.548;9.730;2023-05-19T07:56:08;26.00;66.00
16736;DHT22;17990;49.548;9.730;2023-05-19T07:58:35;25.80;66.60
16736;DHT22;17990;49.548;9.730;2023-05-19T08:01:02;26.30;65.50
16736;DHT22;17990;49.548;9.730;2023-05-19T08:03:30;24.80;68.80
16736;DHT22;17990;49.548;9.730;2023-05-19T08:05:58;23.80;70.50
16736;DHT22;17990;49.548;9.730;2023-05-19T08:08:25;22.60;72.50
16736;DHT22;17990;49.548;9.730;2023-05-19T08:10:52;21.60;75.60
16736;DHT22;17990;49.548;9.730;2023-05-19T08:13:19;21.50;76.10
16736;DHT22;17990;49.548;9.730;2023-05-19T08:15:46;21.90;76.10
16736;DHT22;17990;49.548;9.730;2023-05-19T08:18:13;23.40;73.30
16736;DHT22;17990;49.548;9.730;2023-05-19T08:20:41;22.70;73.90
16736;DHT22;17990;49.548;9.730;2023-05-19T08:23:08;22.50;74.20
16736;DHT22;17990;49.548;9.730;2023-05-19T08:25:35;22.30;75.40
16736;DHT22;17990;49.548;9.730;2023-05-19T08:28:02;22.10;74.60
16736;DHT22;17990;49.548;9.730;2023-05-19T08:30:29;22.50;73.90
16736;DHT22;17990;49.548;9.730;2023-05-19T08:32:55;22.60;73.90
16736;DHT22;17990;49.548;9.730;2023-05-19T08:35:22;22.20;74.30
16736;DHT22;17990;49.548;9.730;2023-05-19T08:37:51;22.00;75.20
16736;DHT22;17990;49.548;9.730;2023-05-19T08:40:19;22.60;74.90
16736;DHT22;17990;49.548;9.730;2023-05-19T08:42:46;22.70;75.00
16736;DHT22;17990;49.548;9.730;2023-05-19T08:45:14;21.70;76.00
16736;DHT22;17990;49.548;9.730;2023-05-19T08:47:42;21.60;77.30
16736;DHT22;17990;49.548;9.730;2023-05-19T08:50:14;20.90;78.50
16736;DHT22;17990;49.548;9.730;2023-05-19T08:52:51;20.60;79.80
16736;DHT22;17990;49.548;9.730;2023-05-19T08:55:28;21.40;78.90
16736;DHT22;17990;49.548;9.730;2023-05-19T08:58:00;21.10;79.60
16736;DHT22;17990;49.548;9.730;2023-05-19T09:00:27;21.00;80.70
16736;DHT22;17990;49.548;9.730;2023-05-19T09:02:55;20.30;82.60
16736;DHT22;17990;49.548;9.730;2023-05-19T09:05:24;20.10;82.40
16736;DHT22;17990;49.548;9.730;2023-05-19T09:07:52;20.00;82.60
16736;DHT22;17990;49.548;9.730;2023-05-19T09:10:19;20.40;82.30
16736;DHT22;17990;49.548;9.730;2023-05-19T09:12:46;20.20;84.30
16736;DHT22;17990;49.548;9.730;2023-05-19T09:15:16;19.70;84.20
16736;DHT22;17990;49.548;9.730;2023-05-19T09:17:44;19.20;85.40
16736;DHT22;17990;49.548;9.730;2023-05-19T09:20:12;19.00;86.50
16736;DHT22;17990;49.548;9.730;2023-05-19T09:22:41;19.00;86.00
16736;DHT22;17990;49.548;9.730;2023-05-19T09:25:21;19.20;86.90
16736;DHT22;17990;49.548;9.730;2023-05-19T09:27:49;19.70;85.60
16736;DHT22;17990;49.548;9.730;2023-05-19T09:30:17;19.50;86.50
16736;DHT22;17990;49.548;9.730;2023-05-19T09:32:44;19.30;87.70
16736;DHT22;17990;49.548;9.730;2023-05-19T09:35:12;19.60;87.30
16736;DHT22;17990;49.548;9.730;2023-05-19T09:37:42;19.60;87.10
16736;DHT22;17990;49.548;9.730;2023-05-19T09:40:09;19.20;87.30
16736;DHT22;17990;49.548;9.730;2023-05-19T09:42:40;19.00;87.90
16736;DHT22;17990;49.548;9.730;2023-05-19T09:45:08;19.10;88.10
16736;DHT22;17990;49.548;9.730;2023-05-19T09:47:36;18.90;87.10
16736;DHT22;17990;49.548;9.730;2023-05-19T09:50:04;19.00;87.70
16736;DHT22;17990;49.548;9.730;2023-05-19T09:52:34;18.90;87.20
16736;DHT22;17990;49.548;9.730;2023-05-19T09:55:03;19.30;87.30
16736;DHT22;17990;49.548;9.730;2023-05-19T09:57:34;19.20;87.20
16736;DHT22;17990;49.548;9.730;2023-05-19T10:00:06;19.20;86.60
16736;DHT22;17990;49.548;9.730;2023-05-19T10:02:41;19.10;87.20
16736;DHT22;17990;49.548;9.730;2023-05-19T10:05:10;19.10;88.10
16736;DHT22;17990;49.548;9.730;2023-05-19T10:07:41;19.30;87.40
16736;DHT22;17990;49.548;9.730;2023-05-19T10:10:11;19.60;86.20
16736;DHT22;17990;49.548;9.730;2023-05-19T10:12:39;19.40;87.10
16736;DHT22;17990;49.548;9.730;2023-05-19T10:15:11;19.40;86.30
16736;DHT22;17990;49.548;9.730;2023-05-19T10:17:39;19.30;86.30
16736;DHT22;17990;49.548;9.730;2023-05-19T10:20:09;19.40;86.20
16736;DHT22;17990;49.548;9.730;2023-05-19T10:22:37;19.70;85.00
16736;DHT22;17990;49.548;9.730;2023-05-19T10:25:05;19.90;84.40
16736;DHT22;17990;49.548;9.730;2023-05-19T10:27:35;19.80;85.20
16736;DHT22;17990;49.548;9.730;2023-05-19T10:30:07;19.50;85.80
16736;DHT22;17990;49.548;9.730;2023-05-19T10:32:38;19.50;85.10
16736;DHT22;17990;49.548;9.730;2023-05-19T10:38:26;19.50;86.30
16736;DHT22;17990;49.548;9.730;2023-05-19T10:41:03;19.40;86.20
16736;DHT22;17990;49.548;9.730;2023-05-19T10:43:41;19.40;86.00
16736;DHT22;17990;49.548;9.730;2023-05-19T10:46:14;19.40;86.00
16736;DHT22;17990;49.548;9.730;2023-05-19T10:48:43;19.50;85.10
16736;DHT22;17990;49.548;9.730;2023-05-19T10:51:10;19.10;87.00
16736;DHT22;17990;49.548;9.730;2023-05-19T10:53:40;19.20;86.20
16736;DHT22;17990;49.548;9.730;2023-05-19T10:56:10;19.10;87.00
16736;DHT22;17990;49.548;9.730;2023-05-19T10:58:40;19.00;86.60
16736;DHT22;17990;49.548;9.730;2023-05-19T11:01:17;18.70;87.50
16736;DHT22;17990;49.548;9.730;2023-05-19T11:03:46;18.50;88.10
16736;DHT22;17990;49.548;9.730;2023-05-19T11:06:24;18.40;88.60
16736;DHT22;17990;49.548;9.730;2023-05-19T11:08:53;18.40;89.20
16736;DHT22;17990;49.548;9.730;2023-05-19T11:11:25;18.10;90.00
16736;DHT22;17990;49.548;9.730;2023-05-19T11:13:53;18.20;90.00
16736;DHT22;17990;49.548;9.730;2023-05-19T11:16:31;18.20;89.90
16736;DHT22;17990;49.548;9.730;2023-05-19T11:18:58;18.30;90.10
16736;DHT22;17990;49.548;9.730;2023-05-19T11:21:40;18.40;90.20
16736;DHT22;17990;49.548;9.730;2023-05-19T11:24:08;18.40;90.20
16736;DHT22;17990;49.548;9.730;2023-05-19T11:26:41;18.10;90.40
16736;DHT22;17990;49.548;9.730;2023-05-19T11:29:09;18.10;91.30
16736;DHT22;17990;49.548;9.730;2023-05-19T11:31:38;18.10;90.90
16736;DHT22;17990;49.548;9.730;2023-05-19T11:34:05;18.00;91.00
16736;DHT22;17990;49.548;9.730;2023-05-19T11:36:36;18.30;90.90
16736;DHT22;17990;49.548;9.730;2023-05-19T11:39:04;18.30;90.70
16736;DHT22;17990;49.548;9.730;2023-05-19T11:41:32;18.30;91.00
16736;DHT22;17990;49.548;9.730;2023-05-19T11:44:08;18.00;91.10
16736;DHT22;17990;49.548;9.730;2023-05-19T11:46:38;18.00;91.20
16736;DHT22;17990;49.548;9.730;2023-05-19T11:49:04;17.70;91.50
16736;DHT22;17990;49.548;9.730;2023-05-19T11:51:32;17.80;91.50
16736;DHT22;17990;49.548;9.730;2023-05-19T11:53:59;17.90;91.60
16736;DHT22;17990;49.548;9.730;2023-05-19T11:56:26;18.30;91.40
16736;DHT22;17990;49.548;9.730;2023-05-19T11:58:52;18.30;91.20
16736;DHT22;17990;49.548;9.730;2023-05-19T12:01:22;18.50;91.00
16736;DHT22;17990;49.548;9.730;2023-05-19T12:03:52;18.70;90.70
16736;DHT22;17990;49.548;9.730;2023-05-19T12:06:19;19.00;90.40
16736;DHT22;17990;49.548;9.730;2023-05-19T12:08:46;19.10;90.20
16736;DHT22;17990;49.548;9.730;2023-05-19T12:11:13;19.10;90.40
16736;DHT22;17990;49.548;9.730;2023-05-19T12:13:40;19.30;90.20
16736;DHT22;17990;49.548;9.730;2023-05-19T12:16:07;19.10;90.40
16736;DHT22;17990;49.548;9.730;2023-05-19T12:18:36;19.30;90.10
16736;DHT22;17990;49.548;9.730;2023-05-19T12:21:05;19.70;90.20
16736;DHT22;17990;49.548;9.730;2023-05-19T12:23:32;20.10;89.40
16736;DHT22;17990;49.548;9.730;2023-05-19T12:26:00;20.70;87.50
16736;DHT22;17990;49.548;9.730;2023-05-19T12:28:29;20.90;86.10
16736;DHT22;17990;49.548;9.730;2023-05-19T12:30:56;20.80;86.80
16736;DHT22;17990;49.548;9.730;2023-05-19T12:33:23;20.90;86.60
16736;DHT22;17990;49.548;9.730;2023-05-19T12:35:50;20.70;87.90
16736;DHT22;17990;49.548;9.730;2023-05-19T12:38:21;20.20;87.20
16736;DHT22;17990;49.548;9.730;2023-05-19T12:40:49;19.40;88.10
16736;DHT22;17990;49.548;9.730;2023-05-19T12:43:19;19.40;89.30
16736;DHT22;17990;49.548;9.730;2023-05-19T12:45:46;19.50;89.50
16736;DHT22;17990;49.548;9.730;2023-05-19T12:48:14;19.10;89.80
16736;DHT22;17990;49.548;9.730;2023-05-19T12:50:41;19.40;90.40
16736;DHT22;17990;49.548;9.730;2023-05-19T12:53:10;19.50;90.20
16736;DHT22;17990;49.548;9.730;2023-05-19T12:55:39;19.40;90.60
16736;DHT22;17990;49.548;9.730;2023-05-19T12:58:07;19.50;90.70
16736;DHT22;17990;49.548;9.730;2023-05-19T13:00:39;19.70;90.00
16736;DHT22;17990;49.548;9.730;2023-05-19T13:03:14;19.70;90.00
16736;DHT22;17990;49.548;9.730;2023-05-19T13:05:43;19.90;88.40
16736;DHT22;17990;49.548;9.730;2023-05-19T13:08:12;20.00;88.40
16736;DHT22;17990;49.548;9.730;2023-05-19T13:10:42;20.10;87.60
16736;DHT22;17990;49.548;9.730;2023-05-19T13:13:10;20.10;87.20
16736;DHT22;17990;49.548;9.730;2023-05-19T13:15:39;20.30;87.10
16736;DHT22;17990;49.548;9.730;2023-05-19T13:18:08;20.40;87.50
16736;DHT22;17990;49.548;9.730;2023-05-19T13:20:38;20.20;87.60
16736;DHT22;17990;49.548;9.730;2023-05-19T13:23:06;20.10;88.20
16736;DHT22;17990;49.548;9.730;2023-05-19T13:25:35;20.10;88.30
16736;DHT22;17990;49.548;9.730;2023-05-19T13:28:03;20.10;88.30
16736;DHT22;17990;49.548;9.730;2023-05-19T13:30:31;20.30;87.40
16736;DHT22;17990;49.548;9.730;2023-05-19T13:32:58;20.30;87.50
16736;DHT22;17990;49.548;9.730;2023-05-19T13:35:25;20.30;86.50
16736;DHT22;17990;49.548;9.730;2023-05-19T13:37:52;20.00;87.80
16736;DHT22;17990;49.548;9.730;2023-05-19T13:40:19;20.20;87.40
16736;DHT22;17990;49.548;9.730;2023-05-19T13:42:48;20.30;87.20
16736;DHT22;17990;49.548;9.730;2023-05-19T13:45:16;20.40;86.50
16736;DHT22;17990;49.548;9.730;2023-05-19T13:47:43;20.20;86.20
16736;DHT22;17990;49.548;9.730;2023-05-19T13:50:10;20.10;86.10
16736;DHT22;17990;49.548;9.730;2023-05-19T13:52:37;20.60;85.80
16736;DHT22;17990;49.548;9.730;2023-05-19T13:55:05;20.70;85.20
16736;DHT22;17990;49.548;9.730;2023-05-19T13:57:33;20.90;84.70
16736;DHT22;17990;49.548;9.730;2023-05-19T14:00:01;20.90;83.60
16736;DHT22;17990;49.548;9.730;2023-05-19T14:02:32;20.90;83.70
16736;DHT22;17990;49.548;9.730;2023-05-19T14:05:00;20.90;84.00
16736;DHT22;17990;49.548;9.730;2023-05-19T14:07:27;21.20;83.50
16736;DHT22;17990;49.548;9.730;2023-05-19T14:09:54;21.10;82.20
16736;DHT22;17990;49.548;9.730;2023-05-19T14:12:21;21.20;82.50
16736;DHT22;17990;49.548;9.730;2023-05-19T14:14:48;20.80;83.70
16736;DHT22;17990;49.548;9.730;2023-05-19T14:17:15;20.70;83.10
16736;DHT22;17990;49.548;9.730;2023-05-19T14:19:43;20.40;83.40
16736;DHT22;17990;49.548;9.730;2023-05-19T14:22:10;20.20;85.00
16736;DHT22;17990;49.548;9.730;2023-05-19T14:24:38;20.50;84.50
16736;DHT22;17990;49.548;9.730;2023-05-19T14:27:06;20.70;85.30
16736;DHT22;17990;49.548;9.730;2023-05-19T14:29:32;20.90;82.90
16736;DHT22;17990;49.548;9.730;2023-05-19T14:32:00;21.20;83.60
16736;DHT22;17990;49.548;9.730;2023-05-19T14:34:28;21.40;82.50
16736;DHT22;17990;49.548;9.730;2023-05-19T14:36:56;21.70;81.60
16736;DHT22;17990;49.548;9.730;2023-05-19T14:39:23;21.90;81.40
16736;DHT22;17990;49.548;9.730;2023-05-19T14:41:50;21.50;80.50
16736;DHT22;17990;49.548;9.730;2023-05-19T14:44:17;21.30;81.10
16736;DHT22;17990;49.548;9.730;2023-05-19T14:46:44;21.50;81.00
16736;DHT22;17990;49.548;9.730;2023-05-19T14:49:11;21.60;81.30
16736;DHT22;17990;49.548;9.730;2023-05-19T14:51:37;21.30;82.00
16736;DHT22;17990;49.548;9.730;2023-05-19T14:54:06;20.90;80.60
16736;DHT22;17990;49.548;9.730;2023-05-19T14:56:33;20.70;80.60
16736;DHT22;17990;49.548;9.730;2023-05-19T14:58:59;20.70;81.10
16736;DHT22;17990;49.548;9.730;2023-05-19T15:01:28;20.90;80.60
16736;DHT22;17990;49.548;9.730;2023-05-19T15:03:55;20.80;82.20
16736;DHT22;17990;49.548;9.730;2023-05-19T15:06:22;20.90;82.00
16736;DHT22;17990;49.548;9.730;2023-05-19T15:08:49;20.70;83.30
16736;DHT22;17990;49.548;9.730;2023-05-19T15:11:17;20.50;82.90
16736;DHT22;17990;49.548;9.730;2023-05-19T15:13:44;20.60;82.50
16736;DHT22;17990;49.548;9.730;2023-05-19T15:16:11;20.50;83.40
16736;DHT22;17990;49.548;9.730;2023-05-19T15:18:38;20.30;83.70
16736;DHT22;17990;49.548;9.730;2023-05-19T15:21:05;20.40;83.60
16736;DHT22;17990;49.548;9.730;2023-05-19T15:23:32;20.30;84.30
16736;DHT22;17990;49.548;9.730;2023-05-19T15:25:58;20.30;85.30
16736;DHT22;17990;49.548;9.730;2023-05-19T15:28:27;20.50;84.40
16736;DHT22;17990;49.548;9.730;2023-05-19T15:30:54;20.50;83.60
16736;DHT22;17990;49.548;9.730;2023-05-19T15:33:21;20.60;83.70
16736;DHT22;17990;49.548;9.730;2023-05-19T15:35:48;20.60;83.90
16736;DHT22;17990;49.548;9.730;2023-05-19T15:38:17;20.70;83.30
16736;DHT22;17990;49.548;9.730;2023-05-19T15:40:44;20.50;82.60
16736;DHT22;17990;49.548;9.730;2023-05-19T15:43:11;20.60;83.70
16736;DHT22;17990;49.548;9.730;2023-05-19T15:45:39;20.70;84.50
16736;DHT22;17990;49.548;9.730;2023-05-19T15:48:06;20.80;83.00
16736;DHT22;17990;49.548;9.730;2023-05-19T15:50:33;20.90;83.10
16736;DHT22;17990;49.548;9.730;2023-05-19T15:53:00;21.00;82.80